Manuel Alba — E.A.S.W — position and weather

sailwx.info

Track history (hours):
 
Tides and Currents Weather Stations Pressure Air Temp Water Temp Dewpoint Dewpoint Depression Visibility Wind Speed Wind Dir Waves Ship Positions

Manuel Alba

Last reported at 2018-Apr-13 02:11 UTC. Time now 2018-Jul-17 05:31 UTC.
Position N 38°39' W 029°37'.
Warning: this ship's position is months out of date.

Length 32 m; draft 3.8 m.

Type: Fishing. MMSI: 224052370.

Date/timePositionNaut miles runAvg speedWind from/ knotsBaromVisibWave heightAir tempDewpointWater temp
2018-Apr-13 02:11N 38°39' W 029°37'13 6.1
2018-Apr-13 00:08N 38°36' W 029°22'2 6.0
2018-Apr-12 23:47N 38°36' W 029°19'2 6.2
2018-Apr-12 23:30N 38°35' W 029°17'3 6.0
2018-Apr-12 23:00N 38°35' W 029°13'4 6.0
2018-Apr-12 22:23N 38°34' W 029°08'3 6.0
2018-Apr-12 21:58N 38°34' W 029°05'3 6.1
2018-Apr-12 21:30N 38°33' W 029°02'3 6.1
2018-Apr-12 21:00N 38°32' W 028°58'4 6.2
2018-Apr-12 20:23N 38°32' W 028°53'3 6.7
2018-Apr-12 19:58N 38°31' W 028°49'4 6.8
2018-Apr-12 19:26N 38°30' W 028°45'2 4.7
2018-Apr-12 18:59N 38°30' W 028°42'2 4.2
2018-Apr-12 18:30N 38°30' W 028°40'3 0.4
2018-Apr-12 11:09N 38°32' W 028°37'0 0.0
2018-Apr-12 10:42N 38°32' W 028°37'0 0.0
2018-Apr-12 10:30N 38°32' W 028°37'0 0.0
2018-Apr-12 07:26N 38°32' W 028°37'0 0.0
2018-Apr-12 06:56N 38°32' W 028°37'0 0.0
2018-Apr-12 06:28N 38°32' W 028°37'0 0.0
2018-Apr-12 03:44N 38°32' W 028°37'0 0.0
2018-Apr-12 03:21N 38°32' W 028°37'0 0.0
2018-Apr-12 02:55N 38°32' W 028°37'0 0.0
2018-Apr-11 23:56N 38°32' W 028°37'0 0.0
2018-Apr-11 23:17N 38°32' W 028°37'0 0.0
2018-Apr-11 20:52N 38°32' W 028°37'0 0.0
2018-Apr-11 20:25N 38°32' W 028°37'0 0.0
2018-Apr-11 19:06N 38°32' W 028°37'0 0.0
2018-Apr-11 16:58N 38°32' W 028°37'0 0.0
2018-Apr-11 16:09N 38°32' W 028°37'0 0.0
2018-Apr-11 15:12N 38°32' W 028°37'0 0.0
2018-Apr-11 15:00N 38°32' W 028°37'0 0.0
2018-Apr-11 14:22N 38°32' W 028°37'0 0.0
2018-Apr-11 13:52N 38°32' W 028°37'0 0.0
2018-Apr-11 13:24N 38°32' W 028°37'0 0.0
2018-Apr-10 10:00N 38°32' W 028°37'0 0.0
2018-Apr-09 09:10N 38°32' W 028°37'0 0.0
2018-Apr-09 08:43N 38°32' W 028°37'0 0.0
2018-Apr-09 08:29N 38°32' W 028°37'0 0.0
2018-Apr-08 18:46N 38°32' W 028°37'2 3.7
2018-Apr-08 18:15N 38°30' W 028°37'2 7.9
2018-Apr-08 17:59N 38°30' W 028°40'4 8.0
2018-Apr-08 17:29N 38°30' W 028°45'4 8.0
2018-Apr-08 17:00N 38°31' W 028°50'3 6.6
2018-Apr-08 16:30N 38°31' W 028°54'3 6.3
2018-Apr-08 16:00N 38°31' W 028°58'3 6.2
2018-Apr-08 15:30N 38°32' W 029°02'3 6.2
2018-Apr-08 15:01N 38°32' W 029°06'3 6.0
2018-Apr-08 14:29N 38°33' W 029°10'3 6.0
2018-Apr-08 14:00N 38°33' W 029°13'3 5.7
2018-Apr-08 13:31N 38°34' W 029°17'8 5.8
2018-Apr-08 12:06N 38°35' W 029°27'1 6.1
2018-Apr-08 12:00N 38°36' W 029°28'10 6.5
2018-Apr-08 10:27N 38°37' W 029°41'3 6.5
2018-Apr-08 10:00N 38°38' W 029°44'5 6.5
2018-Apr-08 09:17N 38°39' W 029°50'2 6.4
2018-Apr-08 08:59N 38°39' W 029°53'3 6.4
2018-Apr-08 08:29N 38°40' W 029°57'3 6.6
2018-Apr-08 08:00N 38°40' W 030°01'6 6.7
2018-Apr-08 07:10N 38°40' W 030°08'3 6.7
2018-Apr-08 06:46N 38°40' W 030°11'5 6.6
2018-Apr-08 06:03N 38°40' W 030°17'  
Track history (hours):
 
Tides and Currents Weather Stations Pressure Air Temp Water Temp Dewpoint Dewpoint Depression Visibility Wind Speed Wind Dir Waves Ship Positions

Manuel Alba

Last reported at 2018-Apr-13 02:11 UTC. Time now 2018-Jul-17 05:31 UTC.
Position N 38°39' W 029°37'.
Warning: this ship's position is months out of date.

Length 32 m; draft 3.8 m.

Type: Fishing. MMSI: 224052370.

Date/timePositionNaut miles runAvg speedWind from/ knotsBaromVisibWave heightAir tempDewpointWater temp
2018-Apr-13 02:11N 38°39' W 029°37'13 6.1
2018-Apr-13 00:08N 38°36' W 029°22'2 6.0
2018-Apr-12 23:47N 38°36' W 029°19'2 6.2
2018-Apr-12 23:30N 38°35' W 029°17'3 6.0
2018-Apr-12 23:00N 38°35' W 029°13'4 6.0
2018-Apr-12 22:23N 38°34' W 029°08'3 6.0
2018-Apr-12 21:58N 38°34' W 029°05'3 6.1
2018-Apr-12 21:30N 38°33' W 029°02'3 6.1
2018-Apr-12 21:00N 38°32' W 028°58'4 6.2
2018-Apr-12 20:23N 38°32' W 028°53'3 6.7
2018-Apr-12 19:58N 38°31' W 028°49'4 6.8
2018-Apr-12 19:26N 38°30' W 028°45'2 4.7
2018-Apr-12 18:59N 38°30' W 028°42'2 4.2
2018-Apr-12 18:30N 38°30' W 028°40'3 0.4
2018-Apr-12 11:09N 38°32' W 028°37'0 0.0
2018-Apr-12 10:42N 38°32' W 028°37'0 0.0
2018-Apr-12 10:30N 38°32' W 028°37'0 0.0
2018-Apr-12 07:26N 38°32' W 028°37'0 0.0
2018-Apr-12 06:56N 38°32' W 028°37'0 0.0
2018-Apr-12 06:28N 38°32' W 028°37'0 0.0
2018-Apr-12 03:44N 38°32' W 028°37'0 0.0
2018-Apr-12 03:21N 38°32' W 028°37'0 0.0
2018-Apr-12 02:55N 38°32' W 028°37'0 0.0
2018-Apr-11 23:56N 38°32' W 028°37'0 0.0
2018-Apr-11 23:17N 38°32' W 028°37'0 0.0
2018-Apr-11 20:52N 38°32' W 028°37'0 0.0
2018-Apr-11 20:25N 38°32' W 028°37'0 0.0
2018-Apr-11 19:06N 38°32' W 028°37'0 0.0
2018-Apr-11 16:58N 38°32' W 028°37'0 0.0
2018-Apr-11 16:09N 38°32' W 028°37'0 0.0
2018-Apr-11 15:12N 38°32' W 028°37'0 0.0
2018-Apr-11 15:00N 38°32' W 028°37'0 0.0
2018-Apr-11 14:22N 38°32' W 028°37'0 0.0
2018-Apr-11 13:52N 38°32' W 028°37'0 0.0
2018-Apr-11 13:24N 38°32' W 028°37'0 0.0
2018-Apr-10 10:00N 38°32' W 028°37'0 0.0
2018-Apr-09 09:10N 38°32' W 028°37'0 0.0
2018-Apr-09 08:43N 38°32' W 028°37'0 0.0
2018-Apr-09 08:29N 38°32' W 028°37'0 0.0
2018-Apr-08 18:46N 38°32' W 028°37'2 3.7
2018-Apr-08 18:15N 38°30' W 028°37'2 7.9
2018-Apr-08 17:59N 38°30' W 028°40'4 8.0
2018-Apr-08 17:29N 38°30' W 028°45'4 8.0
2018-Apr-08 17:00N 38°31' W 028°50'3 6.6
2018-Apr-08 16:30N 38°31' W 028°54'3 6.3
2018-Apr-08 16:00N 38°31' W 028°58'3 6.2
2018-Apr-08 15:30N 38°32' W 029°02'3 6.2
2018-Apr-08 15:01N 38°32' W 029°06'3 6.0
2018-Apr-08 14:29N 38°33' W 029°10'3 6.0
2018-Apr-08 14:00N 38°33' W 029°13'3 5.7
2018-Apr-08 13:31N 38°34' W 029°17'8 5.8
2018-Apr-08 12:06N 38°35' W 029°27'1 6.1
2018-Apr-08 12:00N 38°36' W 029°28'10 6.5
2018-Apr-08 10:27N 38°37' W 029°41'3 6.5
2018-Apr-08 10:00N 38°38' W 029°44'5 6.5
2018-Apr-08 09:17N 38°39' W 029°50'2 6.4
2018-Apr-08 08:59N 38°39' W 029°53'3 6.4
2018-Apr-08 08:29N 38°40' W 029°57'3 6.6
2018-Apr-08 08:00N 38°40' W 030°01'6 6.7
2018-Apr-08 07:10N 38°40' W 030°08'3 6.7
2018-Apr-08 06:46N 38°40' W 030°11'5 6.6
2018-Apr-08 06:03N 38°40' W 030°17'  

Dump ship's entire track history